Time;durP1;ratioP1;P1;durP2;ratioP2;P2;SDS_P1;SDS_P2;PMS_P1;PMS_P2;Temp;Humidity;BMP_temperature;BMP_pressure;BME280_temperature;BME280_humidity;BME280_pressure;Samples;Min_cycle;Max_cycle;Signal;HPM_P1;HPM_P2
2022/01/16 00:06:13;;;;;;;9.70;2.53;;;3.50;60.30;;;;;;5057761;28;20040;-34
2022/01/16 00:08:39;;;;;;;4.00;1.40;;;3.50;60.30;;;;;;5058014;28;20037;-44
2022/01/16 00:11:05;;;;;;;4.72;1.88;;;3.50;60.40;;;;;;5057757;28;20333;-45
2022/01/16 00:13:30;;;;;;;3.33;1.90;;;3.50;60.30;;;;;;5058006;28;20036;-34
2022/01/16 00:15:56;;;;;;;3.28;1.55;;;3.50;60.30;;;;;;5056459;28;20329;-45
2022/01/16 00:18:28;;;;;;;3.67;1.50;;;3.50;60.80;;;;;;5057946;28;20075;-45
2022/01/16 00:20:55;;;;;;;2.65;1.67;;;3.50;60.20;;;;;;5057431;28;20040;-45
2022/01/16 00:23:26;;;;;;;3.63;1.83;;;3.50;60.20;;;;;;5057647;28;20053;-34
2022/01/16 00:25:55;;;;;;;3.28;1.23;;;3.50;60.30;;;;;;5056391;28;20110;-45
2022/01/16 00:28:22;;;;;;;2.92;1.55;;;3.50;60.30;;;;;;5057438;28;20032;-45
2022/01/16 00:30:48;;;;;;;3.55;1.50;;;3.50;60.30;;;;;;5057143;28;20039;-34
2022/01/16 00:33:15;;;;;;;3.40;2.00;;;3.50;60.30;;;;;;5057403;28;20037;-34
2022/01/16 00:35:40;;;;;;;8.38;2.42;;;3.50;60.40;;;;;;5057228;28;20039;-37
2022/01/16 00:38:07;;;;;;;2.70;1.55;;;3.50;60.40;;;;;;5057268;28;20329;-35
2022/01/16 00:40:32;;;;;;;2.55;1.63;;;3.50;60.30;;;;;;5057184;28;20432;-38
2022/01/16 00:42:58;;;;;;;3.38;1.42;;;3.50;60.30;;;;;;5057108;28;20029;-34
2022/01/16 00:45:25;;;;;;;4.70;1.95;;;3.50;60.40;;;;;;5057262;28;20029;-45
2022/01/16 00:47:51;;;;;;;4.90;2.22;;;3.50;60.50;;;;;;5057421;28;20398;-45
2022/01/16 00:50:17;;;;;;;4.50;1.67;;;3.50;60.40;;;;;;5056579;28;20049;-36
2022/01/16 00:52:42;;;;;;;4.63;1.40;;;3.50;60.50;;;;;;5057497;28;20325;-33
2022/01/16 00:55:08;;;;;;;3.97;2.10;;;3.50;60.40;;;;;;5057112;28;20033;-44
2022/01/16 00:57:34;;;;;;;4.45;1.65;;;3.50;60.40;;;;;;5057182;28;20336;-34
2022/01/16 01:00:00;;;;;;;4.20;1.90;;;3.50;60.50;;;;;;5056941;28;20098;-36
2022/01/16 01:02:26;;;;;;;3.15;1.67;;;3.50;60.50;;;;;;5056849;28;20415;-45
2022/01/16 01:04:52;;;;;;;5.03;1.35;;;3.50;60.60;;;;;;5057048;28;20033;-36
2022/01/16 01:07:17;;;;;;;5.68;1.90;;;3.50;60.80;;;;;;5056923;28;20164;-38
2022/01/16 01:09:43;;;;;;;2.70;1.40;;;3.50;60.70;;;;;;5056917;28;20087;-45
2022/01/16 01:12:13;;;;;;;5.38;1.58;;;3.50;60.90;;;;;;5056847;28;20086;-44
2022/01/16 01:14:42;;;;;;;4.40;1.83;;;3.50;61.00;;;;;;5056320;28;20060;-45
2022/01/16 01:17:12;;;;;;;3.22;1.50;;;3.50;61.00;;;;;;5056899;28;20044;-34
2022/01/16 01:19:38;;;;;;;3.67;1.58;;;3.50;61.10;;;;;;5056943;28;20025;-45
2022/01/16 01:22:05;;;;;;;3.42;1.85;;;3.50;61.00;;;;;;5056294;28;20033;-34
2022/01/16 01:24:35;;;;;;;7.25;2.45;;;3.50;61.10;;;;;;5056403;28;20315;-34
2022/01/16 01:27:20;;;;;;;4.32;1.75;;;3.50;61.20;;;;;;5056482;28;20048;-45
2022/01/16 01:29:53;;;;;;;13.88;6.13;;;3.50;61.90;;;;;;5056648;28;20029;-45
2022/01/16 01:32:19;;;;;;;2.92;1.88;;;3.50;61.40;;;;;;5055480;28;20043;-36
2022/01/16 01:34:46;;;;;;;4.13;1.95;;;3.50;61.50;;;;;;5056204;28;20344;-34
2022/01/16 01:37:12;;;;;;;8.43;3.53;;;3.50;61.50;;;;;;5056259;28;20045;-34
2022/01/16 01:39:38;;;;;;;4.95;2.67;;;3.50;61.60;;;;;;5055670;28;20370;-35
2022/01/16 01:42:08;;;;;;;13.00;4.57;;;3.50;61.50;;;;;;5056047;28;20037;-38
2022/01/16 01:53:05;;;;;;;3.72;1.98;;;3.50;61.60;;;;;;5055900;28;20075;-45
2022/01/16 01:55:31;;;;;;;2.47;1.40;;;3.50;61.70;;;;;;5055751;28;20048;-45
2022/01/16 01:57:57;;;;;;;3.78;2.10;;;3.50;61.70;;;;;;5055939;28;20029;-37
2022/01/16 02:00:23;;;;;;;5.63;2.28;;;3.40;61.50;;;;;;5055434;28;20045;-44
2022/01/16 02:05:35;;;;;;;3.28;1.70;;;3.40;61.40;;;;;;5055951;28;20071;-45
2022/01/16 02:08:06;;;;;;;3.58;1.75;;;3.40;61.30;;;;;;5055833;28;20031;-34
2022/01/16 02:10:32;;;;;;;6.45;2.67;;;3.40;61.20;;;;;;5055890;28;20041;-36
2022/01/16 02:13:00;;;;;;;4.63;2.00;;;3.40;61.30;;;;;;5056086;28;20033;-33
2022/01/16 02:37:03;;;;;;;3.97;1.85;;;3.50;59.50;;;;;;5055499;28;20026;-35
2022/01/16 02:39:35;;;;;;;3.35;1.67;;;3.50;59.30;;;;;;5055791;28;20028;-46
2022/01/16 02:42:01;;;;;;;5.88;2.20;;;3.50;59.40;;;;;;5055730;28;20040;-46
2022/01/16 02:46:55;;;;;;;6.55;2.58;;;3.50;59.70;;;;;;5055785;28;20167;-45
2022/01/16 02:49:33;;;;;;;7.18;2.70;;;3.50;59.90;;;;;;5055289;28;20192;-34
2022/01/16 02:52:04;;;;;;;4.47;2.03;;;3.50;59.90;;;;;;5056896;28;20029;-45
2022/01/16 02:54:35;;;;;;;3.70;1.58;;;3.60;60.10;;;;;;5059358;28;20290;-46
2022/01/16 02:57:05;;;;;;;3.30;1.80;;;3.60;60.10;;;;;;5059001;28;20041;-46
2022/01/16 02:59:31;;;;;;;3.13;1.63;;;3.60;60.20;;;;;;5058958;28;20373;-35
2022/01/16 03:01:57;;;;;;;5.13;1.70;;;3.60;60.20;;;;;;5058977;28;20041;-46
2022/01/16 03:04:23;;;;;;;4.25;1.90;;;3.60;60.20;;;;;;5059113;28;20065;-46
2022/01/16 03:06:49;;;;;;;4.18;1.45;;;3.60;60.30;;;;;;5058945;28;20029;-45
2022/01/16 03:09:15;;;;;;;3.30;1.60;;;3.60;60.30;;;;;;5058953;28;20040;-34
2022/01/16 03:11:48;;;;;;;4.25;1.70;;;3.60;60.30;;;;;;5058738;28;20237;-34
2022/01/16 03:14:16;;;;;;;3.60;1.73;;;3.60;60.10;;;;;;5058931;28;20040;-45
2022/01/16 03:16:46;;;;;;;3.05;1.70;;;3.60;60.20;;;;;;5058843;28;20064;-34
2022/01/16 03:22:02;;;;;;;3.25;1.67;;;3.60;60.30;;;;;;5058709;28;20083;-45
2022/01/16 03:24:34;;;;;;;5.35;1.90;;;3.60;60.30;;;;;;5058608;28;20033;-34
2022/01/16 03:27:12;;;;;;;4.05;1.90;;;3.60;60.20;;;;;;5058927;28;20025;-45
2022/01/16 03:29:39;;;;;;;5.55;2.20;;;3.60;60.30;;;;;;5058800;28;20408;-34
2022/01/16 03:32:07;;;;;;;3.40;1.52;;;3.50;60.20;;;;;;5058861;28;20332;-34
2022/01/16 03:34:33;;;;;;;2.40;1.20;;;3.60;60.30;;;;;;5058685;28;20028;-39
2022/01/16 03:36:59;;;;;;;5.10;1.90;;;3.60;60.30;;;;;;5058338;28;20035;-45
2022/01/16 03:39:25;;;;;;;3.63;2.25;;;3.60;60.30;;;;;;5058405;28;20383;-32
2022/01/16 03:41:51;;;;;;;3.47;2.15;;;3.60;60.30;;;;;;5058651;28;20477;-41
2022/01/16 03:44:17;;;;;;;6.57;2.20;;;3.60;60.30;;;;;;5058345;28;20151;-45
2022/01/16 03:46:43;;;;;;;2.67;1.63;;;3.60;60.20;;;;;;5058510;28;20101;-45
2022/01/16 03:49:12;;;;;;;4.05;2.10;;;3.60;60.00;;;;;;5058012;28;20051;-33
2022/01/16 03:51:39;;;;;;;5.57;1.77;;;3.60;59.80;;;;;;5058266;28;20183;-34
2022/01/16 03:54:08;;;;;;;3.88;1.80;;;3.60;59.70;;;;;;5058362;28;20048;-33
2022/01/16 03:56:34;;;;;;;6.43;1.92;;;3.60;59.70;;;;;;5057934;28;20046;-32
2022/01/16 03:59:00;;;;;;;5.70;1.98;;;3.60;59.70;;;;;;5057844;28;20060;-35
2022/01/16 04:01:26;;;;;;;4.40;2.00;;;3.60;59.60;;;;;;5057607;28;20075;-39
2022/01/16 04:03:53;;;;;;;3.58;2.03;;;3.60;59.50;;;;;;5057609;28;20045;-34
2022/01/16 04:06:20;;;;;;;5.65;2.22;;;3.60;59.60;;;;;;5057887;28;20068;-45
2022/01/16 04:08:54;;;;;;;6.28;2.20;;;3.50;59.50;;;;;;5057912;28;20116;-45
2022/01/16 04:11:21;;;;;;;4.53;2.60;;;3.50;59.50;;;;;;5057467;28;20029;-34
2022/01/16 04:15:31;;;;;;;1.77;1.50;;;3.60;59.50;;;;;;5057872;28;20040;-34
2022/01/16 04:16:36;;;;;;;3.92;1.90;;;3.60;59.60;;;;;;5057061;28;20037;-40
2022/01/16 04:19:03;;;;;;;6.68;2.40;;;3.50;59.70;;;;;;5057605;28;20029;-34
2022/01/16 04:21:29;;;;;;;3.50;1.35;;;3.50;59.50;;;;;;5057446;28;20435;-35
2022/01/16 04:23:55;;;;;;;3.22;1.85;;;3.60;59.50;;;;;;5057671;28;20021;-33
2022/01/16 04:26:23;;;;;;;4.38;1.90;;;3.60;59.60;;;;;;5057280;28;20033;-37
2022/01/16 04:28:49;;;;;;;4.18;2.08;;;3.60;59.60;;;;;;5057759;28;20344;-35
2022/01/16 04:31:15;;;;;;;3.80;1.75;;;3.60;59.70;;;;;;5057050;28;20108;-46
2022/01/16 04:33:42;;;;;;;3.10;1.60;;;3.60;59.70;;;;;;5057466;28;20057;-45
2022/01/16 04:36:08;;;;;;;3.15;1.63;;;3.60;59.60;;;;;;5057140;28;20028;-45
2022/01/16 04:38:36;;;;;;;4.55;1.75;;;3.60;59.40;;;;;;5057398;28;20025;-45
2022/01/16 04:43:47;;;;;;;3.92;1.80;;;3.60;59.30;;;;;;5057576;28;20112;-45
2022/01/16 04:46:24;;;;;;;3.65;1.85;;;3.50;59.30;;;;;;5056963;28;20028;-45
2022/01/16 04:48:50;;;;;;;5.18;2.22;;;3.60;59.30;;;;;;5056969;28;20452;-34
2022/01/16 04:51:17;;;;;;;4.53;1.70;;;3.50;59.00;;;;;;5056753;28;20029;-36
2022/01/16 04:53:43;;;;;;;4.72;1.77;;;3.50;59.10;;;;;;5055998;28;20033;-35
2022/01/16 04:56:09;;;;;;;3.78;1.85;;;3.50;59.10;;;;;;5056706;28;20350;-34
2022/01/16 04:58:36;;;;;;;3.78;1.98;;;3.60;59.40;;;;;;5057046;28;20321;-35
2022/01/16 05:01:03;;;;;;;2.55;1.55;;;3.50;59.40;;;;;;5056554;28;20036;-35
2022/01/16 05:03:30;;;;;;;3.58;1.92;;;3.50;59.30;;;;;;5057128;28;20060;-34
2022/01/16 05:05:56;;;;;;;2.80;1.80;;;3.50;59.20;;;;;;5055286;28;20067;-45
2022/01/16 05:08:23;;;;;;;3.15;2.15;;;3.50;59.40;;;;;;5056700;28;20045;-37
2022/01/16 05:10:53;;;;;;;6.40;1.80;;;3.50;59.50;;;;;;5056425;28;20056;-46
2022/01/16 05:18:39;;;;;;;3.72;2.00;;;3.50;59.60;;;;;;5056929;28;20044;-45
2022/01/16 05:21:05;;;;;;;3.17;1.85;;;3.40;59.50;;;;;;5056174;28;20032;-46
2022/01/16 05:23:31;;;;;;;3.65;1.80;;;3.50;59.60;;;;;;5056588;28;20060;-34
2022/01/16 05:25:57;;;;;;;2.75;2.00;;;3.50;59.70;;;;;;5056093;28;20029;-41
2022/01/16 05:28:23;;;;;;;4.97;2.15;;;3.50;59.70;;;;;;5056640;28;20036;-36
2022/01/16 05:30:49;;;;;;;3.05;2.15;;;3.50;59.90;;;;;;5055984;28;20082;-45
2022/01/16 05:33:15;;;;;;;6.07;2.20;;;3.50;60.00;;;;;;5055959;28;20048;-34
2022/01/16 05:35:42;;;;;;;4.05;2.08;;;3.50;60.00;;;;;;5056077;28;20120;-36
2022/01/16 05:38:08;;;;;;;4.85;2.47;;;3.40;59.80;;;;;;5056141;28;20048;-34
2022/01/16 05:40:34;;;;;;;3.83;2.33;;;3.40;59.60;;;;;;5055728;28;20025;-46
2022/01/16 05:43:01;;;;;;;5.45;2.90;;;3.40;59.60;;;;;;5056439;28;20025;-46
2022/01/16 05:45:27;;;;;;;6.20;2.08;;;3.40;59.50;;;;;;5056011;28;20302;-34
2022/01/16 05:47:53;;;;;;;4.97;2.40;;;3.40;59.60;;;;;;5056028;28;20025;-34
2022/01/16 05:50:21;;;;;;;2.60;2.00;;;3.40;59.60;;;;;;5055603;28;20057;-35
2022/01/16 05:52:47;;;;;;;4.45;2.60;;;3.40;59.70;;;;;;5055904;28;20029;-44
2022/01/16 05:55:13;;;;;;;2.80;2.15;;;3.40;59.70;;;;;;5055781;28;20092;-36
2022/01/16 05:57:40;;;;;;;5.55;2.20;;;3.40;59.80;;;;;;5055831;28;20029;-36
2022/01/16 06:00:08;;;;;;;4.50;2.97;;;3.40;59.80;;;;;;5055992;28;20029;-34
2022/01/16 06:02:34;;;;;;;4.15;2.80;;;3.40;59.90;;;;;;5055816;28;20412;-34
2022/01/16 06:05:00;;;;;;;6.43;2.30;;;3.40;59.90;;;;;;5055974;28;20055;-36
2022/01/16 06:07:25;;;;;;;6.25;2.25;;;3.40;59.90;;;;;;5055908;28;20033;-45
2022/01/16 06:09:52;;;;;;;5.93;2.28;;;3.40;59.70;;;;;;5055768;28;20041;-34
2022/01/16 06:12:18;;;;;;;4.97;2.75;;;3.40;59.70;;;;;;5055650;28;20029;-34
2022/01/16 06:14:44;;;;;;;5.82;2.50;;;3.40;59.70;;;;;;5055940;28;20037;-46
2022/01/16 06:17:10;;;;;;;4.20;2.15;;;3.40;59.80;;;;;;5055801;28;20314;-34
2022/01/16 06:19:35;;;;;;;2.85;2.10;;;3.40;59.90;;;;;;5055875;28;20409;-46
2022/01/16 06:22:01;;;;;;;3.33;1.90;;;3.40;60.00;;;;;;5055583;28;20036;-37
2022/01/16 06:24:27;;;;;;;3.10;2.08;;;3.40;60.10;;;;;;5055624;28;20426;-33
2022/01/16 06:26:53;;;;;;;4.38;2.20;;;3.40;60.10;;;;;;5058868;28;20029;-35
2022/01/16 06:29:19;;;;;;;5.07;2.50;;;3.40;60.10;;;;;;5059555;28;20033;-34
2022/01/16 06:31:45;;;;;;;4.85;2.10;;;3.40;60.10;;;;;;5059489;28;20063;-36
2022/01/16 06:34:11;;;;;;;3.55;2.00;;;3.40;60.20;;;;;;5059616;28;20044;-35
2022/01/16 06:36:38;;;;;;;4.00;2.30;;;3.40;60.20;;;;;;5059036;28;20044;-46
2022/01/16 06:39:06;;;;;;;5.28;2.83;;;3.40;60.30;;;;;;5059650;28;20526;-34
2022/01/16 06:41:33;;;;;;;5.82;2.88;;;3.40;60.10;;;;;;5059006;28;20033;-34
2022/01/16 06:44:00;;;;;;;5.85;2.90;;;3.40;60.20;;;;;;5059893;28;20026;-46
2022/01/16 06:46:26;;;;;;;6.38;3.22;;;3.30;60.20;;;;;;5058072;28;20032;-45
2022/01/16 06:48:52;;;;;;;6.35;2.90;;;3.30;60.30;;;;;;5059073;28;20053;-45
2022/01/16 06:51:19;;;;;;;6.82;3.40;;;3.30;60.30;;;;;;5058892;28;20112;-34
2022/01/16 06:53:49;;;;;;;6.30;3.35;;;3.30;60.30;;;;;;5059249;28;20045;-34
2022/01/16 06:56:17;;;;;;;7.30;2.67;;;3.30;60.30;;;;;;5058852;28;20336;-36
2022/01/16 06:58:43;;;;;;;8.32;2.90;;;3.40;60.00;;;;;;5058901;28;20045;-36
2022/01/16 07:01:10;;;;;;;8.05;3.45;;;3.30;60.10;;;;;;5058972;28;20381;-46
2022/01/16 07:03:36;;;;;;;5.82;2.92;;;3.30;60.10;;;;;;5059380;28;20471;-46
2022/01/16 07:06:03;;;;;;;8.07;3.38;;;3.30;59.90;;;;;;5058779;28;20029;-34
2022/01/16 07:08:29;;;;;;;11.27;3.38;;;3.30;59.90;;;;;;5052066;28;20037;-44
2022/01/16 07:10:59;;;;;;;6.30;3.13;;;3.30;60.00;;;;;;5038502;28;20033;-35
2022/01/16 07:13:26;;;;;;;8.63;2.58;;;3.40;60.10;;;;;;5038822;28;20067;-47
2022/01/16 07:15:52;;;;;;;6.80;3.17;;;3.40;60.10;;;;;;5039193;28;20026;-38
2022/01/16 07:18:18;;;;;;;7.18;2.85;;;3.40;60.20;;;;;;5054013;28;20488;-47
2022/01/16 07:20:45;;;;;;;7.80;3.10;;;3.40;60.20;;;;;;5057842;28;20054;-46
2022/01/16 07:23:12;;;;;;;6.15;2.60;;;3.40;60.10;;;;;;5058279;28;20021;-47
2022/01/16 07:25:39;;;;;;;5.35;2.60;;;3.50;60.00;;;;;;5057889;28;20025;-34
2022/01/16 07:28:05;;;;;;;7.68;2.85;;;3.50;60.10;;;;;;5038416;28;20025;-34
2022/01/16 07:30:31;;;;;;;8.45;2.72;;;3.50;60.00;;;;;;5038397;28;20029;-41
2022/01/16 07:32:56;;;;;;;7.57;2.50;;;3.50;60.00;;;;;;5037265;28;20091;-36
2022/01/16 07:35:22;;;;;;;8.25;2.38;;;3.50;60.00;;;;;;5038280;28;20025;-34
2022/01/16 07:37:49;;;;;;;5.88;2.97;;;3.50;60.20;;;;;;5037420;28;20068;-35
2022/01/16 07:40:15;;;;;;;5.65;2.38;;;3.50;60.10;;;;;;5037750;28;20037;-45
2022/01/16 07:42:41;;;;;;;5.20;2.10;;;3.50;60.20;;;;;;5038259;28;20056;-46
2022/01/16 07:45:08;;;;;;;7.82;3.00;;;3.50;60.20;;;;;;5037003;28;20068;-35
2022/01/16 07:47:33;;;;;;;7.40;2.85;;;3.60;60.30;;;;;;5055729;28;20120;-46
2022/01/16 07:49:59;;;;;;;5.95;2.50;;;3.60;60.20;;;;;;5057435;28;20123;-46
2022/01/16 07:52:25;;;;;;;4.43;2.35;;;3.60;60.20;;;;;;5057456;28;20043;-46
2022/01/16 07:54:50;;;;;;;7.25;3.13;;;3.60;60.30;;;;;;5057738;28;20156;-40
2022/01/16 07:57:16;;;;;;;6.25;2.40;;;3.70;60.50;;;;;;5057234;28;20029;-38
2022/01/16 07:59:42;;;;;;;6.60;2.40;;;3.70;60.60;;;;;;5057831;28;20125;-46
2022/01/16 08:02:08;;;;;;;4.63;2.20;;;3.70;60.90;;;;;;5057216;28;20027;-35
2022/01/16 08:04:34;;;;;;;6.75;2.38;;;3.70;61.00;;;;;;5057344;28;20128;-46
2022/01/16 08:07:00;;;;;;;9.60;2.80;;;3.70;61.20;;;;;;5057376;28;20049;-46
2022/01/16 08:09:26;;;;;;;8.18;2.67;;;3.70;61.30;;;;;;5057191;28;20037;-46
2022/01/16 08:11:51;;;;;;;8.75;4.72;;;3.70;61.50;;;;;;5057103;28;20425;-34
2022/01/16 08:14:17;;;;;;;7.53;3.25;;;3.70;61.70;;;;;;5057320;28;20055;-34
2022/01/16 08:16:43;;;;;;;7.57;2.83;;;3.70;62.00;;;;;;5056783;28;20032;-46
2022/01/16 08:19:08;;;;;;;5.30;2.40;;;3.70;62.10;;;;;;5048735;28;20029;-35
2022/01/16 08:21:34;;;;;;;6.07;2.72;;;3.80;62.20;;;;;;5056537;28;20437;-36
2022/01/16 08:24:03;;;;;;;6.13;2.70;;;3.80;62.20;;;;;;5057682;28;20314;-33
2022/01/16 08:26:30;;;;;;;9.32;3.38;;;3.80;62.30;;;;;;5055904;28;20029;-46
2022/01/16 08:28:56;;;;;;;9.38;2.90;;;3.80;62.20;;;;;;5041957;28;20404;-40
2022/01/16 08:31:23;;;;;;;5.32;2.60;;;3.90;62.40;;;;;;5048265;28;20060;-46
2022/01/16 08:33:49;;;;;;;7.32;2.72;;;3.80;62.30;;;;;;5040623;28;20045;-34
2022/01/16 08:36:15;;;;;;;9.55;3.60;;;3.90;62.40;;;;;;5036708;28;20083;-33
2022/01/16 08:38:40;;;;;;;5.00;2.50;;;3.90;62.50;;;;;;5040532;28;20356;-46
2022/01/16 08:41:06;;;;;;;4.53;2.67;;;3.90;62.30;;;;;;5038121;28;20452;-34
2022/01/16 08:43:32;;;;;;;6.35;3.33;;;3.90;62.30;;;;;;5036994;28;20108;-34
2022/01/16 08:45:58;;;;;;;5.65;2.35;;;3.90;62.30;;;;;;5046176;28;20082;-46
2022/01/16 08:48:23;;;;;;;6.55;3.10;;;3.90;62.40;;;;;;5056594;28;20347;-46
2022/01/16 08:50:49;;;;;;;8.95;3.42;;;3.90;62.40;;;;;;5056364;28;20028;-46
2022/01/16 08:53:15;;;;;;;8.75;3.22;;;3.90;62.50;;;;;;5056486;28;20039;-34
2022/01/16 08:55:41;;;;;;;6.68;3.28;;;3.90;62.30;;;;;;5056433;28;20029;-39
2022/01/16 08:58:06;;;;;;;10.88;3.80;;;4.00;62.20;;;;;;5056632;28;20561;-46
2022/01/16 09:00:32;;;;;;;7.18;3.05;;;4.00;62.30;;;;;;5055807;28;20040;-46
2022/01/16 09:02:58;;;;;;;7.30;3.15;;;4.00;62.10;;;;;;5056059;28;20036;-46
2022/01/16 09:05:25;;;;;;;8.65;3.10;;;4.00;61.90;;;;;;5054968;28;20037;-33
2022/01/16 09:07:51;;;;;;;9.23;3.63;;;4.00;62.00;;;;;;5056656;28;20025;-34
2022/01/16 09:10:16;;;;;;;6.00;2.95;;;4.00;61.90;;;;;;5042016;28;20029;-34
2022/01/16 09:12:42;;;;;;;10.18;3.15;;;4.10;61.80;;;;;;5043952;28;20021;-46
2022/01/16 09:15:09;;;;;;;6.18;2.60;;;4.10;61.80;;;;;;5056244;28;20071;-46
2022/01/16 09:17:35;;;;;;;6.32;2.75;;;4.10;61.60;;;;;;5042554;28;20428;-32
2022/01/16 09:20:01;;;;;;;10.52;2.97;;;4.10;61.30;;;;;;5036222;28;20030;-35
2022/01/16 09:22:27;;;;;;;5.25;2.72;;;4.10;61.20;;;;;;5045295;28;20044;-34
2022/01/16 09:24:53;;;;;;;6.68;2.63;;;4.20;60.90;;;;;;5045247;28;20055;-35
2022/01/16 09:27:18;;;;;;;7.60;2.70;;;4.20;60.80;;;;;;5038347;28;20017;-46
2022/01/16 09:29:45;;;;;;;10.18;2.95;;;4.10;60.50;;;;;;5035583;28;20331;-34
2022/01/16 09:32:13;;;;;;;13.88;2.88;;;4.20;60.70;;;;;;5036180;28;20053;-34
2022/01/16 09:34:39;;;;;;;9.02;3.08;;;4.20;60.70;;;;;;5036095;28;20034;-34
2022/01/16 09:37:08;;;;;;;7.07;2.65;;;4.20;60.50;;;;;;5035917;28;20029;-34
2022/01/16 09:39:38;;;;;;;10.32;3.28;;;4.20;60.30;;;;;;5035915;28;20044;-46
2022/01/16 09:42:06;;;;;;;9.25;3.60;;;4.20;60.30;;;;;;5036136;28;20034;-34
2022/01/16 09:44:39;;;;;;;7.93;3.40;;;4.30;60.00;;;;;;5035920;28;20402;-34
2022/01/16 09:47:05;;;;;;;4.95;2.58;;;4.30;59.50;;;;;;5035922;28;20029;-34
2022/01/16 09:49:31;;;;;;;3.63;2.33;;;4.30;59.40;;;;;;5034912;28;20049;-46
2022/01/16 09:51:57;;;;;;;6.47;2.83;;;4.30;59.40;;;;;;5035472;28;20458;-33
2022/01/16 09:54:23;;;;;;;4.50;2.13;;;4.30;59.40;;;;;;5035611;28;20210;-46
2022/01/16 09:56:50;;;;;;;5.93;2.60;;;4.30;59.30;;;;;;5035358;28;20041;-45
2022/01/16 09:59:17;;;;;;;5.95;2.33;;;4.40;59.10;;;;;;5035400;28;20034;-35
2022/01/16 10:01:43;;;;;;;11.20;2.97;;;4.40;58.70;;;;;;5034746;28;20061;-46
2022/01/16 10:04:28;;;;;;;7.18;2.45;;;4.40;58.90;;;;;;5035817;28;20057;-33
2022/01/16 10:06:59;;;;;;;9.43;3.10;;;4.40;58.60;;;;;;5035402;28;20049;-46
2022/01/16 10:09:24;;;;;;;4.72;2.35;;;4.40;58.40;;;;;;5035365;28;20029;-46
2022/01/16 10:11:56;;;;;;;10.40;2.72;;;4.40;58.30;;;;;;5035385;28;20087;-34
2022/01/16 10:14:36;;;;;;;10.38;2.92;;;4.40;58.10;;;;;;5035462;28;20040;-34
2022/01/16 10:17:27;;;;;;;7.13;2.38;;;4.40;57.80;;;;;;5034839;28;20029;-46
2022/01/16 10:20:01;;;;;;;6.88;2.45;;;4.40;57.50;;;;;;5035464;28;20132;-36
2022/01/16 10:22:45;;;;;;;6.85;2.45;;;4.40;57.70;;;;;;5035547;28;20037;-38
2022/01/16 10:25:12;;;;;;;4.97;2.78;;;4.40;57.40;;;;;;5034832;28;20057;-46
2022/01/16 10:27:40;;;;;;;5.03;2.50;;;4.40;57.50;;;;;;5036242;28;20026;-46
2022/01/16 10:30:08;;;;;;;8.57;3.80;;;4.50;57.50;;;;;;5035186;28;20033;-35
2022/01/16 10:32:39;;;;;;;9.27;4.18;;;4.40;56.90;;;;;;5035413;28;20034;-46
2022/01/16 10:35:15;;;;;;;5.90;2.70;;;4.50;56.80;;;;;;5034421;28;20057;-46
2022/01/16 10:37:43;;;;;;;5.68;2.50;;;4.50;56.60;;;;;;5035438;28;20032;-46
2022/01/16 10:40:15;;;;;;;8.10;3.00;;;4.50;56.30;;;;;;5035214;28;20065;-35
2022/01/16 10:42:47;;;;;;;4.68;2.42;;;4.50;56.10;;;;;;5035510;28;20033;-34
2022/01/16 10:45:15;;;;;;;6.22;2.78;;;4.50;56.10;;;;;;5035041;28;20041;-35
2022/01/16 10:47:43;;;;;;;4.53;2.33;;;4.40;56.10;;;;;;5035147;28;20026;-46
2022/01/16 10:50:18;;;;;;;10.82;3.08;;;4.40;55.90;;;;;;5034386;28;20446;-36
2022/01/16 10:52:57;;;;;;;7.53;3.63;;;4.40;55.80;;;;;;5035250;28;20025;-46
2022/01/16 10:55:36;;;;;;;10.95;4.82;;;4.40;55.80;;;;;;5034799;28;20053;-33
2022/01/16 10:58:03;;;;;;;10.00;5.05;;;4.40;55.60;;;;;;5034496;28;20029;-33
2022/01/16 11:00:29;;;;;;;8.70;3.20;;;4.40;55.50;;;;;;5033853;28;20045;-46
2022/01/16 11:03:02;;;;;;;7.03;3.58;;;4.30;54.40;;;;;;5034896;28;20101;-34
2022/01/16 11:05:32;;;;;;;10.77;2.90;;;4.30;54.50;;;;;;5034812;28;20052;-45
2022/01/16 11:08:04;;;;;;;5.63;2.83;;;4.20;54.60;;;;;;5034860;28;20057;-34
2022/01/16 11:10:31;;;;;;;5.03;2.65;;;4.20;55.10;;;;;;5034660;28;20030;-46
2022/01/16 11:13:01;;;;;;;11.60;5.85;;;4.20;55.30;;;;;;5036140;28;20021;-35
2022/01/16 11:15:28;;;;;;;14.50;3.45;;;4.20;55.80;;;;;;5038190;28;20053;-34
2022/01/16 11:17:54;;;;;;;5.78;2.65;;;4.20;56.10;;;;;;5038270;28;20048;-46
2022/01/16 11:20:27;;;;;;;8.73;3.42;;;4.20;55.70;;;;;;5038250;28;20029;-36
2022/01/16 11:22:59;;;;;;;6.78;2.65;;;4.10;55.50;;;;;;5038308;28;20022;-46
2022/01/16 11:25:31;;;;;;;5.60;3.20;;;4.10;55.50;;;;;;5037603;28;20042;-46
2022/01/16 11:28:17;;;;;;;7.13;3.25;;;4.10;55.60;;;;;;5038240;28;20018;-46
2022/01/16 11:30:51;;;;;;;8.35;3.72;;;4.10;55.20;;;;;;5037885;28;20033;-34
2022/01/16 11:33:18;;;;;;;4.75;2.55;;;4.10;55.30;;;;;;5038088;28;20056;-34
2022/01/16 11:36:06;;;;;;;6.18;3.35;;;4.00;55.10;;;;;;5037304;28;20037;-46
2022/01/16 11:38:37;;;;;;;6.57;2.83;;;4.00;55.00;;;;;;5038389;28;20092;-35
2022/01/16 11:41:31;;;;;;;6.07;2.88;;;3.90;54.50;;;;;;5037398;28;20022;-45
2022/01/16 11:43:59;;;;;;;5.93;2.88;;;3.90;54.50;;;;;;5038049;28;20057;-34
2022/01/16 11:46:26;;;;;;;7.65;4.22;;;3.90;55.00;;;;;;5037548;28;20044;-46
2022/01/16 11:49:00;;;;;;;10.30;4.38;;;3.80;54.30;;;;;;5047250;28;20167;-36
2022/01/16 11:51:35;;;;;;;13.65;4.80;;;3.80;54.40;;;;;;5037555;28;20076;-35
2022/01/16 11:54:15;;;;;;;9.65;4.35;;;3.80;54.40;;;;;;5037771;28;20120;-35
2022/01/16 11:56:41;;;;;;;10.93;3.65;;;3.80;55.00;;;;;;5037399;28;20438;-39
2022/01/16 11:59:34;;;;;;;9.23;4.30;;;3.80;54.20;;;;;;5037853;28;20056;-36
2022/01/16 12:02:02;;;;;;;11.73;4.80;;;3.80;54.30;;;;;;5037451;28;20410;-36
2022/01/16 12:04:31;;;;;;;10.50;4.40;;;3.80;54.50;;;;;;5037487;28;20124;-36
2022/01/16 12:07:15;;;;;;;11.10;4.10;;;3.80;54.60;;;;;;5037715;28;20029;-38
2022/01/16 12:10:02;;;;;;;6.60;3.08;;;3.90;54.90;;;;;;5037161;28;20060;-36
2022/01/16 12:12:27;;;;;;;5.05;2.60;;;3.90;54.90;;;;;;5037197;28;20429;-36
2022/01/16 12:15:15;;;;;;;7.40;3.28;;;3.90;54.70;;;;;;5037275;28;20049;-36
2022/01/16 12:17:42;;;;;;;11.88;2.85;;;3.90;54.70;;;;;;5037240;28;20299;-39
2022/01/16 12:20:11;;;;;;;4.90;2.30;;;3.90;54.70;;;;;;5036587;28;20052;-36
2022/01/16 12:22:46;;;;;;;5.90;2.63;;;3.90;54.60;;;;;;5037166;28;20467;-36
2022/01/16 12:25:31;;;;;;;4.43;2.42;;;3.90;54.60;;;;;;5036760;28;20094;-36
2022/01/16 12:28:01;;;;;;;11.65;2.72;;;3.90;54.40;;;;;;5037135;28;20029;-36
2022/01/16 12:30:41;;;;;;;4.82;2.67;;;3.90;54.30;;;;;;5036850;28;20030;-36
2022/01/16 12:33:14;;;;;;;5.78;2.53;;;3.90;54.50;;;;;;5036827;28;20064;-39
2022/01/16 12:35:44;;;;;;;7.95;4.03;;;3.80;54.60;;;;;;5036284;28;20021;-39
2022/01/16 12:38:15;;;;;;;11.25;3.88;;;3.80;54.50;;;;;;5037032;28;20025;-39
2022/01/16 12:40:44;;;;;;;12.65;5.65;;;3.80;54.70;;;;;;5036164;28;20094;-36
2022/01/16 12:43:15;;;;;;;10.68;4.53;;;3.80;54.70;;;;;;5036996;28;20022;-36
2022/01/16 12:45:43;;;;;;;13.35;3.90;;;3.80;54.80;;;;;;5036544;28;20038;-37
2022/01/16 12:48:09;;;;;;;7.10;3.00;;;3.70;54.70;;;;;;5036745;28;20021;-39
2022/01/16 12:50:37;;;;;;;5.72;2.80;;;3.70;54.70;;;;;;5036118;28;20041;-36
2022/01/16 12:53:03;;;;;;;6.90;2.85;;;3.70;54.90;;;;;;5036467;28;20049;-39
2022/01/16 12:55:34;;;;;;;7.60;3.10;;;3.70;55.00;;;;;;5036496;28;20021;-37
2022/01/16 12:58:17;;;;;;;9.70;4.50;;;3.70;54.80;;;;;;5036521;28;20138;-36
2022/01/16 13:01:05;;;;;;;8.27;3.00;;;3.70;55.50;;;;;;5036226;28;20330;-40
2022/01/16 13:03:33;;;;;;;8.68;2.45;;;3.70;55.30;;;;;;5036830;28;20312;-37
2022/01/16 13:06:24;;;;;;;8.68;4.25;;;3.60;55.30;;;;;;5036152;28;20026;-36
2022/01/16 13:09:10;;;;;;;4.50;2.10;;;3.70;55.80;;;;;;5036290;28;20042;-36
2022/01/16 13:11:48;;;;;;;8.35;3.25;;;3.70;55.60;;;;;;5034903;28;20087;-36
2022/01/16 13:14:16;;;;;;;11.13;2.70;;;3.70;56.00;;;;;;5034588;28;20071;-36
2022/01/16 13:16:51;;;;;;;10.77;3.42;;;3.60;55.70;;;;;;5034222;28;20406;-36
2022/01/16 13:19:24;;;;;;;13.48;4.00;;;3.60;55.90;;;;;;5034235;28;20096;-36
2022/01/16 13:22:02;;;;;;;7.82;3.00;;;3.60;55.80;;;;;;5034225;28;20461;-40
2022/01/16 13:24:30;;;;;;;7.93;3.10;;;3.70;56.00;;;;;;5034427;28;20108;-38
2022/01/16 13:26:57;;;;;;;4.82;2.60;;;3.60;56.00;;;;;;5034268;28;20056;-35
2022/01/16 13:29:24;;;;;;;6.82;3.03;;;3.60;55.70;;;;;;5034293;28;20417;-37
2022/01/16 13:31:50;;;;;;;5.85;2.42;;;3.60;55.30;;;;;;5034245;28;20025;-36
2022/01/16 13:34:19;;;;;;;11.95;5.28;;;3.50;54.80;;;;;;5035799;28;20041;-35
2022/01/16 13:36:53;;;;;;;17.33;7.70;;;3.50;54.80;;;;;;5035143;28;20445;-37
2022/01/16 13:39:44;;;;;;;9.90;3.30;;;3.50;54.90;;;;;;5036053;28;20030;-37
2022/01/16 13:45:32;;;;;;;11.20;4.68;;;3.40;55.20;;;;;;5035932;28;19916;-36
2022/01/16 13:48:19;;;;;;;17.65;6.82;;;3.40;55.40;;;;;;5036157;28;20314;-38
2022/01/16 13:50:51;;;;;;;32.65;12.90;;;3.30;55.20;;;;;;5035396;28;20072;-36
2022/01/16 13:53:21;;;;;;;16.08;6.32;;;3.40;55.70;;;;;;5035772;28;20025;-38
2022/01/16 13:55:57;;;;;;;15.38;5.80;;;3.30;55.80;;;;;;5035698;28;20117;-38
2022/01/16 13:58:25;;;;;;;12.13;4.30;;;3.40;55.90;;;;;;5035641;28;20131;-38